sensor_id;sensor_type;location;lat;lon;timestamp;P1;durP1;ratioP1;P2;durP2;ratioP2
68872;SDS011;55907;50.806;12.882;2022-11-20T00:02:07;27.4;;;15.9;;
68872;SDS011;55907;50.806;12.882;2022-11-20T00:05:09;28.0;;;16.5;;
68872;SDS011;55907;50.806;12.882;2022-11-20T00:08:11;26.9;;;14.8;;
68872;SDS011;55907;50.806;12.882;2022-11-20T00:11:13;25.6;;;13.8;;
68872;SDS011;55907;50.806;12.882;2022-11-20T00:14:14;22.5;;;13.8;;
68872;SDS011;55907;50.806;12.882;2022-11-20T00:17:16;21.6;;;12.9;;
68872;SDS011;55907;50.806;12.882;2022-11-20T00:20:17;20.8;;;12.3;;
68872;SDS011;55907;50.806;12.882;2022-11-20T00:23:19;22.3;;;13.4;;
68872;SDS011;55907;50.806;12.882;2022-11-20T00:26:21;22.2;;;13.1;;
68872;SDS011;55907;50.806;12.882;2022-11-20T00:29:22;19.9;;;11.9;;
68872;SDS011;55907;50.806;12.882;2022-11-20T00:32:24;20.7;;;12.0;;
68872;SDS011;55907;50.806;12.882;2022-11-20T00:35:25;22.3;;;12.9;;
68872;SDS011;55907;50.806;12.882;2022-11-20T00:38:27;23.0;;;13.5;;
68872;SDS011;55907;50.806;12.882;2022-11-20T00:41:29;20.1;;;12.3;;
68872;SDS011;55907;50.806;12.882;2022-11-20T00:43:54;unavailable;;;unavailable;;
68872;SDS011;55907;50.806;12.882;2022-11-20T00:43:56;20.1;;;12.3;;
68872;SDS011;55907;50.806;12.882;2022-11-20T00:44:31;22.7;;;12.9;;
68872;SDS011;55907;50.806;12.882;2022-11-20T00:47:32;23.2;;;13.2;;
68872;SDS011;55907;50.806;12.882;2022-11-20T00:50:34;20.9;;;12.7;;
68872;SDS011;55907;50.806;12.882;2022-11-20T00:51:49;unavailable;;;unavailable;;
68872;SDS011;55907;50.806;12.882;2022-11-20T00:52:04;20.9;;;12.7;;
68872;SDS011;55907;50.806;12.882;2022-11-20T00:53:36;21.7;;;13.2;;
68872;SDS011;55907;50.806;12.882;2022-11-20T00:56:37;18.7;;;11.8;;
68872;SDS011;55907;50.806;12.882;2022-11-20T00:59:39;19.8;;;12.7;;
68872;SDS011;55907;50.806;12.882;2022-11-20T01:02:40;21.0;;;12.3;;
68872;SDS011;55907;50.806;12.882;2022-11-20T01:05:42;19.8;;;12.2;;
68872;SDS011;55907;50.806;12.882;2022-11-20T01:08:44;19.7;;;13.0;;
68872;SDS011;55907;50.806;12.882;2022-11-20T01:11:45;22.5;;;13.1;;
68872;SDS011;55907;50.806;12.882;2022-11-20T01:14:47;20.0;;;12.9;;
68872;SDS011;55907;50.806;12.882;2022-11-20T01:17:49;22.1;;;12.9;;
68872;SDS011;55907;50.806;12.882;2022-11-20T01:23:52;24.4;;;14.0;;
68872;SDS011;55907;50.806;12.882;2022-11-20T01:26:54;23.2;;;13.7;;
68872;SDS011;55907;50.806;12.882;2022-11-20T01:29:55;22.6;;;13.1;;
68872;SDS011;55907;50.806;12.882;2022-11-20T01:32:57;26.2;;;16.2;;
68872;SDS011;55907;50.806;12.882;2022-11-20T01:36:03;26.6;;;15.5;;
68872;SDS011;55907;50.806;12.882;2022-11-20T01:39:01;25.9;;;14.9;;
68872;SDS011;55907;50.806;12.882;2022-11-20T01:42:02;27.0;;;15.5;;
68872;SDS011;55907;50.806;12.882;2022-11-20T01:48:05;23.4;;;13.7;;
68872;SDS011;55907;50.806;12.882;2022-11-20T01:51:10;20.7;;;12.1;;
68872;SDS011;55907;50.806;12.882;2022-11-20T01:54:11;26.3;;;14.1;;
68872;SDS011;55907;50.806;12.882;2022-11-20T01:57:10;26.7;;;14.3;;
68872;SDS011;55907;50.806;12.882;2022-11-20T02:00:13;23.7;;;13.7;;
68872;SDS011;55907;50.806;12.882;2022-11-20T02:03:15;19.9;;;11.6;;
68872;SDS011;55907;50.806;12.882;2022-11-20T02:06:17;21.4;;;12.8;;
68872;SDS011;55907;50.806;12.882;2022-11-20T02:09:17;20.5;;;12.0;;
68872;SDS011;55907;50.806;12.882;2022-11-20T02:12:19;18.9;;;11.5;;
68872;SDS011;55907;50.806;12.882;2022-11-20T02:15:21;16.2;;;10.7;;
68872;SDS011;55907;50.806;12.882;2022-11-20T02:18:22;18.5;;;11.1;;
68872;SDS011;55907;50.806;12.882;2022-11-20T02:21:27;20.4;;;11.9;;
68872;SDS011;55907;50.806;12.882;2022-11-20T02:24:26;19.0;;;11.1;;
68872;SDS011;55907;50.806;12.882;2022-11-20T02:27:27;17.2;;;10.4;;
68872;SDS011;55907;50.806;12.882;2022-11-20T02:30:29;18.7;;;11.0;;
68872;SDS011;55907;50.806;12.882;2022-11-20T02:33:30;16.9;;;10.4;;
68872;SDS011;55907;50.806;12.882;2022-11-20T02:36:33;17.4;;;10.4;;
68872;SDS011;55907;50.806;12.882;2022-11-20T02:39:34;17.1;;;10.6;;
68872;SDS011;55907;50.806;12.882;2022-11-20T02:42:36;17.0;;;10.4;;
68872;SDS011;55907;50.806;12.882;2022-11-20T02:45:37;15.0;;;10.1;;
68872;SDS011;55907;50.806;12.882;2022-11-20T02:48:39;15.3;;;9.7;;
68872;SDS011;55907;50.806;12.882;2022-11-20T02:51:40;20.3;;;10.6;;
68872;SDS011;55907;50.806;12.882;2022-11-20T02:54:42;18.9;;;10.5;;
68872;SDS011;55907;50.806;12.882;2022-11-20T02:57:44;18.8;;;11.0;;
68872;SDS011;55907;50.806;12.882;2022-11-20T02:58:41;unavailable;;;unavailable;;
68872;SDS011;55907;50.806;12.882;2022-11-20T02:58:47;18.8;;;11.0;;
68872;SDS011;55907;50.806;12.882;2022-11-20T03:00:09;unavailable;;;unavailable;;
68872;SDS011;55907;50.806;12.882;2022-11-20T03:00:13;18.8;;;11.0;;
68872;SDS011;55907;50.806;12.882;2022-11-20T03:00:46;16.5;;;10.1;;
68872;SDS011;55907;50.806;12.882;2022-11-20T03:03:47;17.8;;;11.1;;
68872;SDS011;55907;50.806;12.882;2022-11-20T03:06:49;19.2;;;11.3;;
68872;SDS011;55907;50.806;12.882;2022-11-20T03:09:50;16.9;;;10.2;;
68872;SDS011;55907;50.806;12.882;2022-11-20T03:12:00;unavailable;;;unavailable;;
68872;SDS011;55907;50.806;12.882;2022-11-20T03:12:05;16.9;;;10.2;;
68872;SDS011;55907;50.806;12.882;2022-11-20T03:12:53;18.9;;;11.4;;
68872;SDS011;55907;50.806;12.882;2022-11-20T03:14:27;unavailable;;;unavailable;;
68872;SDS011;55907;50.806;12.882;2022-11-20T03:14:35;18.9;;;11.4;;
68872;SDS011;55907;50.806;12.882;2022-11-20T03:15:54;17.7;;;11.3;;
68872;SDS011;55907;50.806;12.882;2022-11-20T03:18:55;18.0;;;11.9;;
68872;SDS011;55907;50.806;12.882;2022-11-20T03:21:57;17.6;;;10.8;;
68872;SDS011;55907;50.806;12.882;2022-11-20T03:28:00;18.6;;;11.7;;
68872;SDS011;55907;50.806;12.882;2022-11-20T03:31:06;20.9;;;13.0;;
68872;SDS011;55907;50.806;12.882;2022-11-20T03:34:04;20.4;;;11.2;;
68872;SDS011;55907;50.806;12.882;2022-11-20T03:37:05;17.9;;;10.6;;
68872;SDS011;55907;50.806;12.882;2022-11-20T03:40:08;19.3;;;10.9;;
68872;SDS011;55907;50.806;12.882;2022-11-20T03:43:09;18.0;;;10.7;;
68872;SDS011;55907;50.806;12.882;2022-11-20T03:46:10;16.3;;;9.9;;
68872;SDS011;55907;50.806;12.882;2022-11-20T03:49:12;18.8;;;10.8;;
68872;SDS011;55907;50.806;12.882;2022-11-20T03:52:14;16.9;;;10.7;;
68872;SDS011;55907;50.806;12.882;2022-11-20T03:55:16;16.7;;;10.1;;
68872;SDS011;55907;50.806;12.882;2022-11-20T03:58:17;18.4;;;10.3;;
68872;SDS011;55907;50.806;12.882;2022-11-20T04:01:20;16.8;;;9.5;;
68872;SDS011;55907;50.806;12.882;2022-11-20T04:04:21;16.7;;;9.9;;
68872;SDS011;55907;50.806;12.882;2022-11-20T04:07:22;22.0;;;12.6;;
68872;SDS011;55907;50.806;12.882;2022-11-20T04:10:24;24.4;;;13.8;;
68872;SDS011;55907;50.806;12.882;2022-11-20T04:13:26;26.1;;;13.8;;
68872;SDS011;55907;50.806;12.882;2022-11-20T04:16:29;23.0;;;12.1;;
68872;SDS011;55907;50.806;12.882;2022-11-20T04:19:29;unavailable;;;unavailable;;
68872;SDS011;55907;50.806;12.882;2022-11-20T04:19:29;19.7;;;11.2;;
68872;SDS011;55907;50.806;12.882;2022-11-20T04:21:29;unavailable;;;unavailable;;
68872;SDS011;55907;50.806;12.882;2022-11-20T04:21:36;19.7;;;11.2;;
68872;SDS011;55907;50.806;12.882;2022-11-20T04:22:31;18.7;;;10.9;;
68872;SDS011;55907;50.806;12.882;2022-11-20T04:25:32;18.6;;;10.9;;
68872;SDS011;55907;50.806;12.882;2022-11-20T04:26:38;unavailable;;;unavailable;;
68872;SDS011;55907;50.806;12.882;2022-11-20T04:26:43;18.6;;;10.9;;
68872;SDS011;55907;50.806;12.882;2022-11-20T04:28:34;22.1;;;12.7;;
68872;SDS011;55907;50.806;12.882;2022-11-20T04:28:59;unavailable;;;unavailable;;
68872;SDS011;55907;50.806;12.882;2022-11-20T04:29:04;22.1;;;12.7;;
68872;SDS011;55907;50.806;12.882;2022-11-20T04:29:46;unavailable;;;unavailable;;
68872;SDS011;55907;50.806;12.882;2022-11-20T04:30:13;22.1;;;12.7;;
68872;SDS011;55907;50.806;12.882;2022-11-20T04:30:38;unavailable;;;unavailable;;
68872;SDS011;55907;50.806;12.882;2022-11-20T04:30:43;22.1;;;12.7;;
68872;SDS011;55907;50.806;12.882;2022-11-20T04:31:36;18.8;;;10.6;;
68872;SDS011;55907;50.806;12.882;2022-11-20T04:34:37;19.8;;;12.1;;
68872;SDS011;55907;50.806;12.882;2022-11-20T04:37:39;20.2;;;11.4;;
68872;SDS011;55907;50.806;12.882;2022-11-20T04:38:35;unavailable;;;unavailable;;
68872;SDS011;55907;50.806;12.882;2022-11-20T04:40:41;19.4;;;11.4;;
68872;SDS011;55907;50.806;12.882;2022-11-20T04:43:45;17.5;;;10.8;;
68872;SDS011;55907;50.806;12.882;2022-11-20T04:46:44;16.6;;;10.2;;
68872;SDS011;55907;50.806;12.882;2022-11-20T04:49:46;17.0;;;9.8;;
68872;SDS011;55907;50.806;12.882;2022-11-20T04:52:47;16.9;;;10.3;;
68872;SDS011;55907;50.806;12.882;2022-11-20T04:55:49;18.5;;;10.3;;
68872;SDS011;55907;50.806;12.882;2022-11-20T04:58:51;16.5;;;9.3;;
68872;SDS011;55907;50.806;12.882;2022-11-20T05:01:52;18.1;;;9.9;;
68872;SDS011;55907;50.806;12.882;2022-11-20T05:04:54;18.0;;;9.7;;
68872;SDS011;55907;50.806;12.882;2022-11-20T05:07:56;15.0;;;9.1;;
68872;SDS011;55907;50.806;12.882;2022-11-20T05:10:59;16.2;;;9.4;;
68872;SDS011;55907;50.806;12.882;2022-11-20T05:13:59;15.3;;;8.8;;
68872;SDS011;55907;50.806;12.882;2022-11-20T05:17:01;16.6;;;9.9;;
68872;SDS011;55907;50.806;12.882;2022-11-20T05:20:03;14.7;;;8.4;;
68872;SDS011;55907;50.806;12.882;2022-11-20T05:23:04;14.9;;;9.0;;
68872;SDS011;55907;50.806;12.882;2022-11-20T05:26:06;13.0;;;8.4;;
68872;SDS011;55907;50.806;12.882;2022-11-20T05:29:09;15.3;;;8.8;;
68872;SDS011;55907;50.806;12.882;2022-11-20T05:32:09;15.2;;;8.5;;
68872;SDS011;55907;50.806;12.882;2022-11-20T05:35:11;13.1;;;8.3;;
68872;SDS011;55907;50.806;12.882;2022-11-20T05:38:13;11.5;;;7.8;;
68872;SDS011;55907;50.806;12.882;2022-11-20T05:41:15;14.1;;;8.4;;
68872;SDS011;55907;50.806;12.882;2022-11-20T05:44:16;18.8;;;11.0;;
68872;SDS011;55907;50.806;12.882;2022-11-20T05:47:18;17.2;;;10.7;;
68872;SDS011;55907;50.806;12.882;2022-11-20T05:50:19;16.4;;;9.8;;
68872;SDS011;55907;50.806;12.882;2022-11-20T05:53:21;13.1;;;8.2;;
68872;SDS011;55907;50.806;12.882;2022-11-20T05:56:23;12.8;;;8.0;;
68872;SDS011;55907;50.806;12.882;2022-11-20T05:59:24;13.6;;;8.1;;
68872;SDS011;55907;50.806;12.882;2022-11-20T06:02:26;14.2;;;8.5;;
68872;SDS011;55907;50.806;12.882;2022-11-20T06:05:28;14.0;;;8.5;;
68872;SDS011;55907;50.806;12.882;2022-11-20T06:08:30;13.6;;;8.7;;
68872;SDS011;55907;50.806;12.882;2022-11-20T06:11:31;15.9;;;9.0;;
68872;SDS011;55907;50.806;12.882;2022-11-20T06:14:33;15.3;;;8.8;;
68872;SDS011;55907;50.806;12.882;2022-11-20T06:17:35;14.4;;;8.5;;
68872;SDS011;55907;50.806;12.882;2022-11-20T06:20:36;13.6;;;8.4;;
68872;SDS011;55907;50.806;12.882;2022-11-20T06:23:38;13.7;;;8.5;;
68872;SDS011;55907;50.806;12.882;2022-11-20T06:26:40;12.2;;;7.4;;
68872;SDS011;55907;50.806;12.882;2022-11-20T06:29:41;11.9;;;7.2;;
68872;SDS011;55907;50.806;12.882;2022-11-20T06:32:43;13.6;;;8.1;;
68872;SDS011;55907;50.806;12.882;2022-11-20T06:35:45;12.5;;;7.7;;
68872;SDS011;55907;50.806;12.882;2022-11-20T06:38:46;10.6;;;6.9;;
68872;SDS011;55907;50.806;12.882;2022-11-20T06:41:48;12.1;;;7.4;;
68872;SDS011;55907;50.806;12.882;2022-11-20T06:44:50;8.5;;;5.8;;
68872;SDS011;55907;50.806;12.882;2022-11-20T06:47:51;11.9;;;6.5;;
68872;SDS011;55907;50.806;12.882;2022-11-20T06:50:53;8.1;;;5.9;;
68872;SDS011;55907;50.806;12.882;2022-11-20T06:53:55;11.2;;;7.3;;
68872;SDS011;55907;50.806;12.882;2022-11-20T06:56:56;13.1;;;7.8;;
68872;SDS011;55907;50.806;12.882;2022-11-20T06:59:58;12.1;;;7.7;;
68872;SDS011;55907;50.806;12.882;2022-11-20T07:03:02;11.0;;;7.0;;
68872;SDS011;55907;50.806;12.882;2022-11-20T07:06:02;11.2;;;7.8;;
68872;SDS011;55907;50.806;12.882;2022-11-20T07:09:03;10.4;;;6.7;;
68872;SDS011;55907;50.806;12.882;2022-11-20T07:12:05;10.0;;;6.7;;
68872;SDS011;55907;50.806;12.882;2022-11-20T07:15:07;10.8;;;6.9;;
68872;SDS011;55907;50.806;12.882;2022-11-20T07:18:08;10.5;;;6.9;;
68872;SDS011;55907;50.806;12.882;2022-11-20T07:21:10;9.8;;;6.9;;
68872;SDS011;55907;50.806;12.882;2022-11-20T07:24:12;11.1;;;6.4;;
68872;SDS011;55907;50.806;12.882;2022-11-20T07:27:13;9.5;;;6.9;;
68872;SDS011;55907;50.806;12.882;2022-11-20T07:30:15;9.4;;;6.6;;
68872;SDS011;55907;50.806;12.882;2022-11-20T07:33:17;9.9;;;6.5;;
68872;SDS011;55907;50.806;12.882;2022-11-20T07:36:18;9.7;;;6.8;;
68872;SDS011;55907;50.806;12.882;2022-11-20T07:39:20;12.4;;;8.2;;
68872;SDS011;55907;50.806;12.882;2022-11-20T07:42:22;10.2;;;7.1;;
68872;SDS011;55907;50.806;12.882;2022-11-20T07:45:24;9.9;;;6.7;;
68872;SDS011;55907;50.806;12.882;2022-11-20T07:48:25;9.2;;;6.5;;
68872;SDS011;55907;50.806;12.882;2022-11-20T07:51:27;9.8;;;6.8;;
68872;SDS011;55907;50.806;12.882;2022-11-20T07:54:28;10.4;;;6.5;;
68872;SDS011;55907;50.806;12.882;2022-11-20T07:57:30;11.3;;;7.8;;
68872;SDS011;55907;50.806;12.882;2022-11-20T08:00:31;10.8;;;6.9;;
68872;SDS011;55907;50.806;12.882;2022-11-20T08:03:33;10.6;;;7.3;;
68872;SDS011;55907;50.806;12.882;2022-11-20T08:06:35;16.9;;;10.8;;
68872;SDS011;55907;50.806;12.882;2022-11-20T08:09:36;14.6;;;9.8;;
68872;SDS011;55907;50.806;12.882;2022-11-20T08:12:43;14.1;;;9.3;;
68872;SDS011;55907;50.806;12.882;2022-11-20T08:15:40;13.2;;;8.7;;
68872;SDS011;55907;50.806;12.882;2022-11-20T08:18:41;13.0;;;8.6;;
68872;SDS011;55907;50.806;12.882;2022-11-20T08:21:43;12.3;;;8.3;;
68872;SDS011;55907;50.806;12.882;2022-11-20T08:24:45;14.7;;;8.9;;
68872;SDS011;55907;50.806;12.882;2022-11-20T08:27:38;unavailable;;;unavailable;;
68872;SDS011;55907;50.806;12.882;2022-11-20T08:33:43;13.2;;;9.4;;
68872;SDS011;55907;50.806;12.882;2022-11-20T08:33:49;12.6;;;9.0;;
68872;SDS011;55907;50.806;12.882;2022-11-20T08:36:51;13.6;;;10.0;;
68872;SDS011;55907;50.806;12.882;2022-11-20T08:39:53;14.3;;;9.3;;
68872;SDS011;55907;50.806;12.882;2022-11-20T08:42:54;13.5;;;9.7;;
68872;SDS011;55907;50.806;12.882;2022-11-20T08:45:56;14.0;;;8.9;;
68872;SDS011;55907;50.806;12.882;2022-11-20T08:48:57;13.4;;;10.1;;
68872;SDS011;55907;50.806;12.882;2022-11-20T08:51:59;11.9;;;8.6;;
68872;SDS011;55907;50.806;12.882;2022-11-20T08:55:01;12.9;;;9.0;;
68872;SDS011;55907;50.806;12.882;2022-11-20T08:58:03;14.1;;;9.2;;
68872;SDS011;55907;50.806;12.882;2022-11-20T09:01:04;12.4;;;8.9;;
68872;SDS011;55907;50.806;12.882;2022-11-20T09:04:06;12.1;;;8.7;;
68872;SDS011;55907;50.806;12.882;2022-11-20T09:06:29;12.1;;;8.7;;
68872;SDS011;55907;50.806;12.882;2022-11-20T09:06:29;unavailable;;;unavailable;;
68872;SDS011;55907;50.806;12.882;2022-11-20T09:07:07;12.7;;;9.2;;
68872;SDS011;55907;50.806;12.882;2022-11-20T09:10:09;12.0;;;9.1;;
68872;SDS011;55907;50.806;12.882;2022-11-20T09:13:29;unavailable;;;unavailable;;
68872;SDS011;55907;50.806;12.882;2022-11-20T09:13:52;13.5;;;9.8;;
68872;SDS011;55907;50.806;12.882;2022-11-20T09:16:12;13.7;;;9.3;;
68872;SDS011;55907;50.806;12.882;2022-11-20T09:19:15;13.6;;;10.1;;
68872;SDS011;55907;50.806;12.882;2022-11-20T09:22:15;15.5;;;10.9;;
68872;SDS011;55907;50.806;12.882;2022-11-20T09:25:17;14.1;;;10.5;;
68872;SDS011;55907;50.806;12.882;2022-11-20T09:28:18;15.8;;;10.3;;
68872;SDS011;55907;50.806;12.882;2022-11-20T09:31:21;15.5;;;11.0;;
68872;SDS011;55907;50.806;12.882;2022-11-20T09:34:21;15.7;;;11.1;;
68872;SDS011;55907;50.806;12.882;2022-11-20T09:37:25;15.3;;;11.7;;
68872;SDS011;55907;50.806;12.882;2022-11-20T09:40:25;14.0;;;11.5;;
68872;SDS011;55907;50.806;12.882;2022-11-20T09:43:29;16.3;;;11.9;;
68872;SDS011;55907;50.806;12.882;2022-11-20T09:46:29;15.5;;;11.6;;
68872;SDS011;55907;50.806;12.882;2022-11-20T09:49:32;14.9;;;12.2;;
68872;SDS011;55907;50.806;12.882;2022-11-20T09:52:33;17.1;;;12.5;;
68872;SDS011;55907;50.806;12.882;2022-11-20T09:55:32;17.2;;;12.4;;
68872;SDS011;55907;50.806;12.882;2022-11-20T09:58:35;16.1;;;12.6;;
68872;SDS011;55907;50.806;12.882;2022-11-20T10:01:38;26.9;;;17.6;;
68872;SDS011;55907;50.806;12.882;2022-11-20T10:04:37;15.7;;;12.4;;
68872;SDS011;55907;50.806;12.882;2022-11-20T10:07:40;17.0;;;12.0;;
68872;SDS011;55907;50.806;12.882;2022-11-20T10:10:41;15.9;;;12.3;;
68872;SDS011;55907;50.806;12.882;2022-11-20T10:13:44;17.7;;;12.7;;
68872;SDS011;55907;50.806;12.882;2022-11-20T10:16:46;15.0;;;11.9;;
68872;SDS011;55907;50.806;12.882;2022-11-20T10:19:47;15.9;;;12.0;;
68872;SDS011;55907;50.806;12.882;2022-11-20T10:22:51;16.1;;;12.2;;
68872;SDS011;55907;50.806;12.882;2022-11-20T10:25:49;17.5;;;12.5;;
68872;SDS011;55907;50.806;12.882;2022-11-20T10:28:53;18.4;;;13.1;;
68872;SDS011;55907;50.806;12.882;2022-11-20T10:31:52;17.0;;;12.6;;
68872;SDS011;55907;50.806;12.882;2022-11-20T10:34:54;18.0;;;12.6;;
68872;SDS011;55907;50.806;12.882;2022-11-20T10:37:55;18.9;;;13.0;;
68872;SDS011;55907;50.806;12.882;2022-11-20T10:40:56;18.3;;;12.9;;
68872;SDS011;55907;50.806;12.882;2022-11-20T10:44:00;17.5;;;12.0;;
68872;SDS011;55907;50.806;12.882;2022-11-20T10:46:59;18.4;;;12.7;;
68872;SDS011;55907;50.806;12.882;2022-11-20T10:50:02;19.6;;;13.4;;
68872;SDS011;55907;50.806;12.882;2022-11-20T10:53:03;18.0;;;12.5;;
68872;SDS011;55907;50.806;12.882;2022-11-20T10:56:05;18.2;;;12.2;;
68872;SDS011;55907;50.806;12.882;2022-11-20T10:59:11;19.2;;;12.8;;
68872;SDS011;55907;50.806;12.882;2022-11-20T11:02:15;17.0;;;12.5;;
68872;SDS011;55907;50.806;12.882;2022-11-20T11:05:10;16.4;;;11.6;;
68872;SDS011;55907;50.806;12.882;2022-11-20T11:08:11;17.5;;;13.0;;
68872;SDS011;55907;50.806;12.882;2022-11-20T11:11:15;17.4;;;13.0;;
68872;SDS011;55907;50.806;12.882;2022-11-20T11:14:14;18.9;;;13.6;;
68872;SDS011;55907;50.806;12.882;2022-11-20T11:17:20;17.1;;;12.3;;
68872;SDS011;55907;50.806;12.882;2022-11-20T11:20:17;18.0;;;12.5;;
68872;SDS011;55907;50.806;12.882;2022-11-20T11:23:29;16.9;;;13.0;;
68872;SDS011;55907;50.806;12.882;2022-11-20T11:26:20;21.2;;;16.0;;
68872;SDS011;55907;50.806;12.882;2022-11-20T11:29:21;19.5;;;14.6;;
68872;SDS011;55907;50.806;12.882;2022-11-20T11:32:22;17.6;;;13.4;;
68872;SDS011;55907;50.806;12.882;2022-11-20T11:35:25;18.8;;;14.1;;
68872;SDS011;55907;50.806;12.882;2022-11-20T11:38:28;17.1;;;12.1;;
68872;SDS011;55907;50.806;12.882;2022-11-20T11:41:28;16.4;;;12.6;;
68872;SDS011;55907;50.806;12.882;2022-11-20T11:44:30;17.4;;;12.9;;
68872;SDS011;55907;50.806;12.882;2022-11-20T11:47:31;17.6;;;12.6;;
68872;SDS011;55907;50.806;12.882;2022-11-20T11:50:32;18.1;;;13.5;;
68872;SDS011;55907;50.806;12.882;2022-11-20T11:53:33;17.8;;;13.0;;
68872;SDS011;55907;50.806;12.882;2022-11-20T11:56:35;17.1;;;12.6;;
68872;SDS011;55907;50.806;12.882;2022-11-20T12:02:38;18.3;;;14.5;;
68872;SDS011;55907;50.806;12.882;2022-11-20T12:05:40;16.8;;;12.7;;
68872;SDS011;55907;50.806;12.882;2022-11-20T12:08:43;19.0;;;14.2;;
68872;SDS011;55907;50.806;12.882;2022-11-20T12:11:43;18.0;;;13.9;;
68872;SDS011;55907;50.806;12.882;2022-11-20T12:14:47;17.5;;;14.0;;
68872;SDS011;55907;50.806;12.882;2022-11-20T12:17:46;17.1;;;13.1;;
68872;SDS011;55907;50.806;12.882;2022-11-20T12:20:50;16.2;;;12.8;;
68872;SDS011;55907;50.806;12.882;2022-11-20T12:23:54;18.3;;;13.3;;
68872;SDS011;55907;50.806;12.882;2022-11-20T12:26:54;18.0;;;13.6;;
68872;SDS011;55907;50.806;12.882;2022-11-20T12:29:53;19.2;;;13.8;;
68872;SDS011;55907;50.806;12.882;2022-11-20T12:32:59;15.9;;;12.4;;
68872;SDS011;55907;50.806;12.882;2022-11-20T12:35:59;16.2;;;12.3;;
68872;SDS011;55907;50.806;12.882;2022-11-20T12:38:58;16.3;;;12.6;;
68872;SDS011;55907;50.806;12.882;2022-11-20T12:42:02;17.2;;;12.0;;
68872;SDS011;55907;50.806;12.882;2022-11-20T12:45:02;16.8;;;13.0;;
68872;SDS011;55907;50.806;12.882;2022-11-20T12:51:08;17.1;;;13.3;;
68872;SDS011;55907;50.806;12.882;2022-11-20T12:54:11;18.5;;;13.1;;
68872;SDS011;55907;50.806;12.882;2022-11-20T12:57:06;22.0;;;15.3;;
68872;SDS011;55907;50.806;12.882;2022-11-20T13:00:09;18.8;;;14.1;;
68872;SDS011;55907;50.806;12.882;2022-11-20T13:06:12;20.4;;;14.2;;
68872;SDS011;55907;50.806;12.882;2022-11-20T13:09:12;17.3;;;12.9;;
68872;SDS011;55907;50.806;12.882;2022-11-20T13:12:15;20.3;;;14.2;;
68872;SDS011;55907;50.806;12.882;2022-11-20T13:15:17;24.5;;;17.2;;
68872;SDS011;55907;50.806;12.882;2022-11-20T13:18:17;22.7;;;16.2;;
68872;SDS011;55907;50.806;12.882;2022-11-20T13:21:20;23.6;;;16.8;;
68872;SDS011;55907;50.806;12.882;2022-11-20T13:24:21;23.1;;;16.3;;
68872;SDS011;55907;50.806;12.882;2022-11-20T13:27:22;22.2;;;16.0;;
68872;SDS011;55907;50.806;12.882;2022-11-20T13:30:23;20.9;;;15.7;;
68872;SDS011;55907;50.806;12.882;2022-11-20T13:33:27;21.1;;;15.3;;
68872;SDS011;55907;50.806;12.882;2022-11-20T13:36:27;20.4;;;14.6;;
68872;SDS011;55907;50.806;12.882;2022-11-20T13:39:28;19.0;;;14.5;;
68872;SDS011;55907;50.806;12.882;2022-11-20T13:42:29;19.4;;;15.0;;
68872;SDS011;55907;50.806;12.882;2022-11-20T13:45:31;21.1;;;15.5;;
68872;SDS011;55907;50.806;12.882;2022-11-20T13:48:33;20.7;;;15.4;;
68872;SDS011;55907;50.806;12.882;2022-11-20T13:51:36;20.4;;;13.9;;
68872;SDS011;55907;50.806;12.882;2022-11-20T13:54:42;21.3;;;15.8;;
68872;SDS011;55907;50.806;12.882;2022-11-20T13:57:41;19.1;;;13.8;;
68872;SDS011;55907;50.806;12.882;2022-11-20T14:00:43;21.3;;;15.3;;
68872;SDS011;55907;50.806;12.882;2022-11-20T14:03:40;21.6;;;15.5;;
68872;SDS011;55907;50.806;12.882;2022-11-20T14:06:42;20.7;;;14.5;;
68872;SDS011;55907;50.806;12.882;2022-11-20T14:09:49;20.6;;;15.0;;
68872;SDS011;55907;50.806;12.882;2022-11-20T14:12:45;20.7;;;14.5;;
68872;SDS011;55907;50.806;12.882;2022-11-20T14:15:47;26.1;;;18.3;;
68872;SDS011;55907;50.806;12.882;2022-11-20T14:18:48;37.8;;;23.9;;
68872;SDS011;55907;50.806;12.882;2022-11-20T14:21:51;21.6;;;15.6;;
68872;SDS011;55907;50.806;12.882;2022-11-20T14:25:00;18.3;;;13.5;;
68872;SDS011;55907;50.806;12.882;2022-11-20T14:27:53;19.6;;;14.2;;
68872;SDS011;55907;50.806;12.882;2022-11-20T14:30:54;17.8;;;13.5;;
68872;SDS011;55907;50.806;12.882;2022-11-20T14:33:56;18.0;;;13.5;;
68872;SDS011;55907;50.806;12.882;2022-11-20T14:36:58;17.9;;;13.2;;
68872;SDS011;55907;50.806;12.882;2022-11-20T14:43:01;17.6;;;13.3;;
68872;SDS011;55907;50.806;12.882;2022-11-20T14:46:03;16.4;;;13.0;;
68872;SDS011;55907;50.806;12.882;2022-11-20T14:49:04;17.8;;;12.9;;
68872;SDS011;55907;50.806;12.882;2022-11-20T14:52:10;18.5;;;12.9;;
68872;SDS011;55907;50.806;12.882;2022-11-20T14:52:53;unavailable;;;unavailable;;
68872;SDS011;55907;50.806;12.882;2022-11-20T14:52:56;18.5;;;12.9;;
68872;SDS011;55907;50.806;12.882;2022-11-20T14:55:12;18.0;;;13.0;;
68872;SDS011;55907;50.806;12.882;2022-11-20T14:57:37;unavailable;;;unavailable;;
68872;SDS011;55907;50.806;12.882;2022-11-20T14:57:40;18.0;;;13.0;;
68872;SDS011;55907;50.806;12.882;2022-11-20T14:58:20;15.8;;;11.6;;
68872;SDS011;55907;50.806;12.882;2022-11-20T15:01:11;15.2;;;10.8;;
68872;SDS011;55907;50.806;12.882;2022-11-20T15:04:14;14.2;;;10.7;;
68872;SDS011;55907;50.806;12.882;2022-11-20T15:06:28;unavailable;;;unavailable;;
68872;SDS011;55907;50.806;12.882;2022-11-20T15:06:49;14.2;;;10.7;;
68872;SDS011;55907;50.806;12.882;2022-11-20T15:07:27;unavailable;;;unavailable;;
68872;SDS011;55907;50.806;12.882;2022-11-20T15:08:04;13.8;;;10.7;;
68872;SDS011;55907;50.806;12.882;2022-11-20T15:10:20;13.3;;;10.0;;
68872;SDS011;55907;50.806;12.882;2022-11-20T15:13:18;20.1;;;13.5;;
68872;SDS011;55907;50.806;12.882;2022-11-20T15:16:18;16.1;;;10.5;;
68872;SDS011;55907;50.806;12.882;2022-11-20T15:19:20;14.8;;;10.4;;
68872;SDS011;55907;50.806;12.882;2022-11-20T15:22:21;15.4;;;11.0;;
68872;SDS011;55907;50.806;12.882;2022-11-20T15:25:23;19.7;;;13.1;;
68872;SDS011;55907;50.806;12.882;2022-11-20T15:28:27;18.7;;;12.2;;
68872;SDS011;55907;50.806;12.882;2022-11-20T15:31:26;16.3;;;11.8;;
68872;SDS011;55907;50.806;12.882;2022-11-20T15:34:28;17.6;;;11.1;;
68872;SDS011;55907;50.806;12.882;2022-11-20T15:37:29;29.4;;;19.4;;
68872;SDS011;55907;50.806;12.882;2022-11-20T15:40:31;16.5;;;11.5;;
68872;SDS011;55907;50.806;12.882;2022-11-20T15:43:32;15.7;;;10.6;;
68872;SDS011;55907;50.806;12.882;2022-11-20T15:46:35;16.4;;;10.8;;
68872;SDS011;55907;50.806;12.882;2022-11-20T15:49:36;16.0;;;11.2;;
68872;SDS011;55907;50.806;12.882;2022-11-20T15:52:37;16.4;;;10.8;;
68872;SDS011;55907;50.806;12.882;2022-11-20T15:55:39;16.3;;;11.0;;
68872;SDS011;55907;50.806;12.882;2022-11-20T15:58:40;17.4;;;10.9;;
68872;SDS011;55907;50.806;12.882;2022-11-20T16:01:42;17.1;;;11.5;;
68872;SDS011;55907;50.806;12.882;2022-11-20T16:04:44;18.1;;;11.7;;
68872;SDS011;55907;50.806;12.882;2022-11-20T16:07:45;16.4;;;10.8;;
68872;SDS011;55907;50.806;12.882;2022-11-20T16:10:47;16.3;;;10.5;;
68872;SDS011;55907;50.806;12.882;2022-11-20T16:13:48;17.4;;;11.2;;
68872;SDS011;55907;50.806;12.882;2022-11-20T16:16:50;15.0;;;10.3;;
68872;SDS011;55907;50.806;12.882;2022-11-20T16:19:52;16.2;;;11.2;;
68872;SDS011;55907;50.806;12.882;2022-11-20T16:22:53;15.6;;;10.7;;
68872;SDS011;55907;50.806;12.882;2022-11-20T16:25:55;18.0;;;10.9;;
68872;SDS011;55907;50.806;12.882;2022-11-20T16:28:58;15.4;;;10.5;;